Time;durP1;ratioP1;P1;durP2;ratioP2;P2;SDS_P1;SDS_P2;PMS_P1;PMS_P2;Temp;Humidity;BMP_temperature;BMP_pressure;BME280_temperature;BME280_humidity;BME280_pressure;Samples;Min_cycle;Max_cycle;Signal;HPM_P1;HPM_P2
2023/08/10 00:00:32;;;;;;;7.53;2.95;;;;;;;16.24;100.00;101994.56;5260592;28;20045;-73
2023/08/10 00:03:03;;;;;;;5.95;2.63;;;;;;;16.29;100.00;102001.13;5271376;28;20048;-72
2023/08/10 00:05:35;;;;;;;3.75;2.22;;;;;;;16.30;100.00;102002.78;5267230;28;20107;-72
2023/08/10 00:08:06;;;;;;;5.65;3.08;;;;;;;16.33;100.00;102001.69;5262822;28;20085;-73
2023/08/10 00:10:37;;;;;;;5.85;2.75;;;;;;;16.35;100.00;102002.38;5264882;28;20353;-72
2023/08/10 00:13:08;;;;;;;4.18;2.33;;;;;;;16.38;100.00;102004.75;5266492;28;20381;-72
2023/08/10 00:15:40;;;;;;;4.70;2.72;;;;;;;16.39;100.00;102005.56;5258264;28;20452;-72
2023/08/10 00:18:11;;;;;;;5.32;3.00;;;;;;;16.34;100.00;102006.00;5262918;28;20044;-72
2023/08/10 00:20:42;;;;;;;6.65;2.75;;;;;;;16.45;100.00;102005.03;5264784;28;20094;-72
2023/08/10 00:23:14;;;;;;;5.90;2.67;;;;;;;16.48;100.00;102002.09;5267526;28;20059;-73
2023/08/10 00:25:45;;;;;;;5.15;2.90;;;;;;;16.48;100.00;102007.41;5263867;28;20033;-72
2023/08/10 00:28:16;;;;;;;6.15;2.90;;;;;;;16.45;100.00;102011.16;5263764;28;20046;-73
2023/08/10 00:30:48;;;;;;;4.90;2.30;;;;;;;16.43;100.00;102004.31;5258771;28;20032;-72
2023/08/10 00:33:19;;;;;;;13.00;3.25;;;;;;;16.48;100.00;102010.03;5258628;28;20032;-72
2023/08/10 00:35:50;;;;;;;4.95;2.80;;;;;;;16.46;100.00;102006.69;5245096;28;20493;-72
2023/08/10 00:38:22;;;;;;;4.78;2.80;;;;;;;16.48;100.00;102004.75;5264070;28;20055;-73
2023/08/10 00:40:53;;;;;;;4.32;2.60;;;;;;;16.45;100.00;102007.66;5256873;28;20097;-73
2023/08/10 00:43:24;;;;;;;4.85;2.60;;;;;;;16.44;100.00;102008.63;5258656;28;20024;-72
2023/08/10 00:45:56;;;;;;;3.92;2.60;;;;;;;16.45;100.00;102003.22;5269706;28;20035;-72
2023/08/10 00:48:27;;;;;;;4.07;2.70;;;;;;;16.43;100.00;102001.66;5262314;28;20024;-73
2023/08/10 00:50:59;;;;;;;4.22;2.25;;;;;;;16.39;100.00;102000.28;5262766;28;20456;-72
2023/08/10 00:53:30;;;;;;;6.15;2.88;;;;;;;16.44;100.00;102000.69;5261391;28;20036;-72
2023/08/10 00:56:03;;;;;;;4.70;2.53;;;;;;;16.38;100.00;101995.97;5261459;28;20500;-73
2023/08/10 00:58:35;;;;;;;6.43;2.75;;;;;;;16.40;100.00;101991.38;5258443;28;20068;-72
2023/08/10 01:01:06;;;;;;;5.50;2.80;;;;;;;16.39;100.00;101990.53;5265592;28;20037;-72
2023/08/10 01:03:37;;;;;;;4.00;2.72;;;;;;;16.35;100.00;101997.06;5259281;28;20029;-72
2023/08/10 01:06:17;;;;;;;4.65;2.60;;;;;;;16.43;100.00;101999.84;5262755;28;20086;-72
2023/08/10 01:08:54;;;;;;;3.65;2.58;;;;;;;16.47;100.00;102011.00;5256750;28;20140;-73
2023/08/10 01:11:42;;;;;;;5.18;2.58;;;;;;;16.49;100.00;101995.81;5256737;28;20024;-73
2023/08/10 01:14:40;;;;;;;7.40;3.30;;;;;;;16.65;100.00;102005.84;5259429;28;20467;-72
2023/08/10 01:17:18;;;;;;;4.78;2.70;;;;;;;16.35;100.00;102001.53;5261530;28;20033;-72
2023/08/10 01:19:52;;;;;;;5.47;2.60;;;;;;;16.26;100.00;102000.56;5270392;28;20024;-73
2023/08/10 01:22:38;;;;;;;4.80;3.13;;;;;;;16.35;100.00;102007.66;5265182;28;20090;-72
2023/08/10 01:25:11;;;;;;;5.45;3.20;;;;;;;16.23;100.00;102000.84;5261745;28;20040;-73
2023/08/10 01:27:44;;;;;;;5.82;3.17;;;;;;;16.22;100.00;101994.72;5264239;28;20444;-72
2023/08/10 01:30:16;;;;;;;6.93;3.25;;;;;;;16.11;100.00;101997.50;5239866;28;20326;-72
2023/08/10 01:32:51;;;;;;;6.15;2.90;;;;;;;16.20;100.00;102001.13;5259104;28;20052;-72
2023/08/10 01:35:22;;;;;;;4.13;2.65;;;;;;;16.08;100.00;102004.88;5259867;28;20064;-72
2023/08/10 01:37:53;;;;;;;7.72;3.42;;;;;;;16.06;100.00;102005.00;5258604;28;20117;-72
2023/08/10 01:40:25;;;;;;;7.03;3.35;;;;;;;16.00;100.00;102009.03;5258656;28;20055;-72
2023/08/10 01:42:57;;;;;;;4.55;3.10;;;;;;;15.96;100.00;102006.81;5256547;28;20437;-72
2023/08/10 01:45:29;;;;;;;8.05;2.92;;;;;;;15.98;100.00;102007.50;5260295;28;20111;-72
2023/08/10 01:48:08;;;;;;;5.30;2.95;;;;;;;15.95;100.00;102007.78;5260726;28;20033;-72
2023/08/10 01:50:41;;;;;;;5.10;2.78;;;;;;;15.89;100.00;102005.69;5253269;28;20029;-72
2023/08/10 01:53:17;;;;;;;4.47;3.25;;;;;;;15.88;100.00;102004.00;5263893;28;20025;-72
2023/08/10 01:55:49;;;;;;;5.13;3.08;;;;;;;15.79;100.00;102010.94;5235983;28;20031;-73
2023/08/10 01:58:20;;;;;;;6.32;2.42;;;;;;;15.76;100.00;102009.41;5245904;28;20024;-72
2023/08/10 02:00:52;;;;;;;4.47;3.05;;;;;;;15.74;100.00;102006.06;5262597;28;20044;-72
2023/08/10 02:03:23;;;;;;;4.72;3.20;;;;;;;15.71;100.00;102011.59;5259351;28;20033;-72
2023/08/10 02:05:54;;;;;;;4.15;2.83;;;;;;;15.67;100.00;102012.03;5256976;28;20021;-72
2023/08/10 02:08:25;;;;;;;5.50;3.15;;;;;;;15.63;100.00;102014.06;5262265;28;20048;-72
2023/08/10 02:10:57;;;;;;;4.50;2.97;;;;;;;15.61;100.00;102015.16;5256563;28;20027;-72
2023/08/10 02:13:28;;;;;;;4.72;2.97;;;;;;;15.54;100.00;102004.31;5255557;28;20020;-72
2023/08/10 02:15:59;;;;;;;3.80;2.90;;;;;;;15.53;100.00;102016.69;5259519;28;20031;-72
2023/08/10 02:18:31;;;;;;;5.30;3.28;;;;;;;15.52;100.00;102017.63;5265207;28;20090;-72
2023/08/10 02:21:02;;;;;;;5.95;3.53;;;;;;;15.48;100.00;102018.03;5264587;28;20031;-73
2023/08/10 02:23:35;;;;;;;5.53;3.35;;;;;;;15.45;100.00;102018.31;5261103;28;20471;-72
2023/08/10 02:26:06;;;;;;;4.88;3.13;;;;;;;15.44;100.00;102019.28;5261554;28;20583;-72
2023/08/10 02:28:37;;;;;;;3.97;2.92;;;;;;;15.41;100.00;102020.38;5267999;28;20020;-72
2023/08/10 02:31:08;;;;;;;9.10;3.05;;;;;;;15.39;100.00;102026.78;5260668;28;20021;-72
2023/08/10 02:33:40;;;;;;;6.38;3.50;;;;;;;15.28;100.00;102006.56;5267185;28;20025;-72
2023/08/10 02:36:12;;;;;;;5.80;3.25;;;;;;;15.35;100.00;102023.56;5261167;28;20104;-72
2023/08/10 02:38:43;;;;;;;5.65;2.97;;;;;;;15.36;100.00;102021.75;5245110;28;20131;-72
2023/08/10 02:41:15;;;;;;;5.68;3.33;;;;;;;15.32;100.00;102022.00;5260047;28;20056;-72
2023/08/10 02:43:46;;;;;;;5.35;3.22;;;;;;;15.27;100.00;102018.09;5267637;28;20033;-72
2023/08/10 02:46:17;;;;;;;5.78;3.60;;;;;;;15.26;100.00;102021.69;5266195;28;20044;-72
2023/08/10 02:48:49;;;;;;;6.13;3.60;;;;;;;15.25;100.00;102020.88;5258152;28;20082;-73
2023/08/10 02:51:20;;;;;;;5.10;3.60;;;;;;;15.19;100.00;102021.41;5265206;28;20028;-72
2023/08/10 02:53:52;;;;;;;8.60;3.90;;;;;;;15.21;100.00;102022.09;5274140;28;20056;-72
2023/08/10 02:56:23;;;;;;;5.35;3.47;;;;;;;15.20;100.00;102025.72;5263387;28;20036;-72
2023/08/10 02:58:54;;;;;;;5.40;3.42;;;;;;;15.21;100.00;102024.72;5261565;28;20028;-72
2023/08/10 03:01:26;;;;;;;5.20;3.70;;;;;;;15.18;100.00;102032.91;5260177;28;20032;-73
2023/08/10 03:03:57;;;;;;;5.78;3.58;;;;;;;15.14;100.00;102028.03;5264704;28;20017;-73
2023/08/10 03:06:29;;;;;;;4.75;3.78;;;;;;;15.11;100.00;102031.75;5264253;28;20086;-73
2023/08/10 03:09:00;;;;;;;8.07;3.40;;;;;;;15.03;100.00;102023.66;5261970;28;20056;-73
2023/08/10 03:11:31;;;;;;;3.80;2.83;;;;;;;15.05;100.00;102037.56;5264952;28;20029;-73
2023/08/10 03:14:03;;;;;;;4.22;3.50;;;;;;;15.02;100.00;102038.66;5264768;28;20159;-73
2023/08/10 03:16:34;;;;;;;5.65;3.72;;;;;;;14.97;100.00;102032.94;5264115;28;20039;-73
2023/08/10 03:19:06;;;;;;;5.50;3.67;;;;;;;14.98;100.00;102041.69;5264272;28;20028;-73
2023/08/10 03:21:37;;;;;;;5.75;3.42;;;;;;;14.95;100.00;102042.78;5265098;28;20029;-73
2023/08/10 03:24:08;;;;;;;5.53;3.67;;;;;;;14.91;100.00;102043.19;5264777;28;20608;-73
2023/08/10 03:26:39;;;;;;;4.63;3.50;;;;;;;14.90;100.00;102046.78;5263950;28;20028;-73
2023/08/10 03:29:11;;;;;;;5.40;3.35;;;;;;;14.86;100.00;102040.94;5264588;28;20082;-73
2023/08/10 03:31:42;;;;;;;5.40;3.28;;;;;;;14.80;100.00;102042.25;5261768;28;20048;-73
2023/08/10 03:34:13;;;;;;;7.78;4.22;;;;;;;14.79;100.00;102029.22;5264515;28;20025;-73
2023/08/10 03:36:45;;;;;;;6.43;3.95;;;;;;;14.78;100.00;102033.66;5263129;28;20413;-73
2023/08/10 03:39:16;;;;;;;4.22;3.55;;;;;;;14.77;100.00;102026.72;5264189;28;20116;-73
2023/08/10 03:41:47;;;;;;;5.70;3.75;;;;;;;14.75;100.00;102026.00;5260416;28;20025;-73
2023/08/10 03:44:18;;;;;;;7.57;4.22;;;;;;;14.72;100.00;102031.53;5262180;28;20029;-73
2023/08/10 03:46:53;;;;;;;4.82;3.67;;;;;;;14.71;100.00;102031.66;5264649;28;20036;-73
2023/08/10 03:49:24;;;;;;;4.95;3.70;;;;;;;14.68;100.00;102022.19;5263022;28;20121;-73
2023/08/10 03:51:56;;;;;;;5.90;4.25;;;;;;;14.67;100.00;102031.09;5247318;28;20271;-73
2023/08/10 03:54:29;;;;;;;5.22;3.60;;;;;;;14.64;100.00;102031.31;5263128;28;20040;-73
2023/08/10 03:57:00;;;;;;;5.63;3.58;;;;;;;14.59;100.00;102037.00;5265265;28;20043;-73
2023/08/10 03:59:32;;;;;;;4.90;4.28;;;;;;;14.63;100.00;102040.22;5262079;28;20409;-73
2023/08/10 04:02:03;;;;;;;6.55;4.05;;;;;;;14.60;100.00;102040.47;5262468;28;20506;-73
2023/08/10 04:04:34;;;;;;;5.30;3.67;;;;;;;14.58;100.00;102042.38;5261499;28;20375;-73
2023/08/10 04:07:07;;;;;;;6.03;4.55;;;;;;;14.59;100.00;102044.06;5244109;28;20085;-73
2023/08/10 04:09:44;;;;;;;7.75;4.47;;;;;;;14.60;100.00;102045.75;5264438;28;20017;-73
2023/08/10 04:12:18;;;;;;;6.57;4.00;;;;;;;14.63;100.00;102045.50;5264347;28;20024;-76
2023/08/10 04:14:49;;;;;;;5.85;4.07;;;;;;;14.55;100.00;102050.56;5262195;28;20518;-73
2023/08/10 04:17:21;;;;;;;6.65;4.05;;;;;;;14.53;100.00;102053.31;5263443;28;20025;-73
2023/08/10 04:19:52;;;;;;;5.85;4.00;;;;;;;14.51;100.00;102046.50;5265509;28;20024;-73
2023/08/10 04:22:24;;;;;;;5.55;4.28;;;;;;;14.47;100.00;102047.66;5263466;28;20028;-73
2023/08/10 04:24:55;;;;;;;6.05;4.07;;;;;;;14.49;100.00;102051.03;5262318;28;20517;-73
2023/08/10 04:27:27;;;;;;;5.97;4.00;;;;;;;14.52;100.00;102050.81;5263572;28;20108;-73
2023/08/10 04:29:58;;;;;;;5.30;4.22;;;;;;;14.45;100.00;102053.06;5263690;28;20020;-73
2023/08/10 04:32:30;;;;;;;7.70;4.30;;;;;;;14.44;100.00;102048.78;5261522;28;20028;-73
2023/08/10 04:35:02;;;;;;;7.18;4.25;;;;;;;14.50;100.00;102050.91;5263331;28;20537;-73
2023/08/10 04:37:33;;;;;;;8.85;4.50;;;;;;;14.53;100.00;102049.84;5261616;28;20081;-73
2023/08/10 04:40:09;;;;;;;5.97;4.25;;;;;;;14.49;100.00;102048.38;5263728;28;20429;-73
2023/08/10 04:42:40;;;;;;;8.43;4.35;;;;;;;14.50;100.00;102058.84;5258894;28;20094;-73
2023/08/10 04:45:12;;;;;;;5.35;4.45;;;;;;;14.48;100.00;102063.38;5260848;28;20021;-73
2023/08/10 04:47:46;;;;;;;6.53;3.90;;;;;;;14.58;100.00;102066.13;5263249;28;20020;-73
2023/08/10 04:50:17;;;;;;;5.13;4.13;;;;;;;14.50;100.00;102068.53;5259882;28;20351;-73
2023/08/10 04:52:49;;;;;;;5.10;4.32;;;;;;;14.53;100.00;102065.66;5259623;28;20028;-73
2023/08/10 04:55:20;;;;;;;7.13;4.75;;;;;;;14.64;100.00;102065.63;5262438;28;20131;-73
2023/08/10 04:57:52;;;;;;;6.53;4.45;;;;;;;14.66;100.00;102070.75;5263905;28;20371;-73
2023/08/10 05:00:23;;;;;;;9.10;4.75;;;;;;;14.75;100.00;102070.84;5261820;28;20040;-73
2023/08/10 05:02:54;;;;;;;4.97;4.47;;;;;;;14.82;100.00;102072.00;5260841;28;20436;-73
2023/08/10 05:05:26;;;;;;;8.20;5.15;;;;;;;14.91;100.00;102070.41;5259712;28;20024;-73
2023/08/10 05:07:57;;;;;;;7.03;4.90;;;;;;;14.97;100.00;102075.16;5264467;28;20032;-73
2023/08/10 05:10:28;;;;;;;8.93;4.72;;;;;;;14.99;100.00;102072.41;5261502;28;20386;-73
2023/08/10 05:12:59;;;;;;;6.65;4.82;;;;;;;15.08;100.00;102069.84;5259520;28;20040;-73
2023/08/10 05:15:31;;;;;;;6.90;4.93;;;;;;;15.11;100.00;102066.06;5259512;28;20037;-73
2023/08/10 05:18:02;;;;;;;4.90;4.38;;;;;;;15.12;100.00;102065.13;5262177;28;20107;-73
2023/08/10 05:20:34;;;;;;;7.05;4.80;;;;;;;15.12;100.00;102070.41;5244363;28;20033;-72
2023/08/10 05:23:05;;;;;;;6.80;4.55;;;;;;;15.16;100.00;102071.81;5263124;28;20421;-73
2023/08/10 05:25:37;;;;;;;6.32;5.13;;;;;;;15.19;100.00;102075.97;5262095;28;20032;-73
2023/08/10 05:28:08;;;;;;;6.90;5.10;;;;;;;15.23;100.00;102078.25;5260090;28;20028;-73
2023/08/10 05:30:39;;;;;;;14.27;5.28;;;;;;;15.28;100.00;102080.50;5266365;28;20016;-73
2023/08/10 05:33:10;;;;;;;7.95;5.70;;;;;;;15.28;100.00;102060.22;5261309;28;20810;-73
2023/08/10 05:35:43;;;;;;;7.10;5.70;;;;;;;15.35;100.00;102071.09;5259658;28;20041;-73
2023/08/10 05:38:14;;;;;;;6.85;4.95;;;;;;;15.42;100.00;102068.75;5260036;28;20029;-73
2023/08/10 05:40:45;;;;;;;8.00;5.07;;;;;;;15.45;100.00;102057.91;5259314;28;20082;-73
2023/08/10 05:43:16;;;;;;;6.45;5.78;;;;;;;15.49;100.00;102061.97;5262065;28;20074;-73
2023/08/10 05:45:48;;;;;;;6.00;5.07;;;;;;;15.54;100.00;102062.41;5262643;28;20031;-73
2023/08/10 05:48:19;;;;;;;7.50;5.25;;;;;;;15.56;100.00;102060.47;5258168;28;20305;-73
2023/08/10 05:50:50;;;;;;;7.28;5.13;;;;;;;15.59;100.00;102060.22;5257992;28;20013;-73
2023/08/10 05:53:22;;;;;;;7.93;5.22;;;;;;;15.63;100.00;102058.97;5240781;28;20064;-73
2023/08/10 05:55:53;;;;;;;7.07;5.15;;;;;;;15.66;100.00;102061.38;5260141;28;20032;-73
2023/08/10 05:58:25;;;;;;;7.72;5.50;;;;;;;15.70;100.00;102060.13;5262557;28;20028;-72
2023/08/10 06:00:56;;;;;;;7.97;5.28;;;;;;;15.76;100.00;102061.44;5258725;28;20052;-73
2023/08/10 06:03:28;;;;;;;5.90;5.30;;;;;;;15.84;100.00;102058.94;5261444;28;20025;-72
2023/08/10 06:06:00;;;;;;;7.32;5.55;;;;;;;15.96;100.00;102059.66;5263406;28;20036;-73
2023/08/10 06:08:32;;;;;;;8.68;5.78;;;;;;;16.10;100.00;102064.56;5245444;28;20113;-73
2023/08/10 06:11:05;;;;;;;9.07;6.40;;;;;;;16.19;100.00;102063.75;5263063;28;20020;-73
2023/08/10 06:13:38;;;;;;;;;;;;;;;16.96;100.00;102062.09;5266967;28;20029;-73
2023/08/10 06:16:09;;;;;;;7.65;5.60;;;;;;;16.45;100.00;102053.47;5266519;28;19924;-73
2023/08/10 06:18:41;;;;;;;8.02;6.10;;;;;;;16.49;100.00;102056.66;5262641;28;20037;-73
2023/08/10 06:21:13;;;;;;;7.65;6.53;;;;;;;16.55;100.00;102061.38;5263957;28;20056;-73
2023/08/10 06:23:44;;;;;;;10.47;6.43;;;;;;;16.58;100.00;102070.88;5260652;28;20031;-73
2023/08/10 06:26:16;;;;;;;8.30;5.57;;;;;;;16.53;100.00;102064.19;5246478;28;20424;-73
2023/08/10 06:28:48;;;;;;;7.38;5.32;;;;;;;16.60;100.00;102064.47;5263666;28;20029;-73
2023/08/10 06:31:19;;;;;;;8.15;6.15;;;;;;;16.72;100.00;102066.00;5260673;28;20526;-73
2023/08/10 06:33:50;;;;;;;8.98;5.65;;;;;;;16.82;100.00;102059.88;5262016;28;20060;-73
2023/08/10 06:36:22;;;;;;;10.25;6.38;;;;;;;16.93;100.00;102062.38;5247607;28;20056;-73
2023/08/10 06:38:53;;;;;;;8.90;5.75;;;;;;;16.98;100.00;102063.63;5264876;28;20555;-73
2023/08/10 06:41:24;;;;;;;10.48;6.13;;;;;;;17.20;100.00;102062.47;5261931;28;20393;-74
2023/08/10 06:43:56;;;;;;;8.63;5.80;;;;;;;17.31;100.00;102056.13;5265792;28;20382;-73
2023/08/10 06:46:27;;;;;;;9.35;6.40;;;;;;;17.39;100.00;102058.09;5263420;28;20039;-73
2023/08/10 06:48:58;;;;;;;8.70;6.30;;;;;;;17.56;100.00;102059.94;5265684;28;20052;-73
2023/08/10 06:51:30;;;;;;;8.00;6.78;;;;;;;17.68;100.00;102056.13;5261335;28;20028;-74
2023/08/10 06:54:01;;;;;;;12.43;7.93;;;;;;;17.78;100.00;102055.28;5260567;28;20047;-74
2023/08/10 06:56:32;;;;;;;9.48;6.38;;;;;;;17.87;100.00;102047.25;5259885;28;20486;-73
2023/08/10 06:59:04;;;;;;;11.05;5.28;;;;;;;17.94;100.00;102047.50;5242120;28;20086;-74
2023/08/10 07:01:35;;;;;;;6.70;5.03;;;;;;;18.06;100.00;102051.63;5260392;28;20498;-74
2023/08/10 07:04:07;;;;;;;5.55;4.00;;;;;;;18.18;100.00;102053.09;5263863;28;20108;-73
2023/08/10 07:06:38;;;;;;;8.68;4.75;;;;;;;18.33;100.00;102048.06;5264224;28;20119;-74
2023/08/10 07:09:10;;;;;;;5.15;3.78;;;;;;;18.42;100.00;102043.69;5261649;28;20546;-74
2023/08/10 07:11:41;;;;;;;4.53;3.20;;;;;;;18.50;100.00;102049.06;5261318;28;20706;-73
2023/08/10 07:14:12;;;;;;;6.53;3.22;;;;;;;18.72;100.00;102047.78;5263894;28;20048;-74
2023/08/10 07:16:43;;;;;;;3.70;2.35;;;;;;;18.73;100.00;102040.66;5262127;28;20021;-74
2023/08/10 07:19:15;;;;;;;4.60;2.50;;;;;;;18.90;100.00;102048.59;5264224;28;20021;-74
2023/08/10 07:21:46;;;;;;;7.00;2.42;;;;;;;19.02;100.00;102054.47;5260944;28;20024;-74
2023/08/10 07:24:17;;;;;;;3.47;2.17;;;;;;;19.09;100.00;102052.00;5262651;28;20025;-75
2023/08/10 07:26:50;;;;;;;4.65;2.53;;;;;;;19.27;100.00;102049.28;5263237;28;20127;-75
2023/08/10 07:29:21;;;;;;;;;;;;;;;20.00;100.00;102052.28;5244270;28;20032;-74
2023/08/10 07:32:00;;;;;;;4.43;2.27;;;;;;;19.54;100.00;102057.06;5258124;28;19924;-75
2023/08/10 07:34:31;;;;;;;3.95;1.92;;;;;;;19.64;100.00;102060.47;5264489;28;20025;-75
2023/08/10 07:37:03;;;;;;;3.60;1.90;;;;;;;19.79;100.00;102054.56;5264287;28;20039;-75
2023/08/10 07:39:34;;;;;;;3.38;1.40;;;;;;;19.82;97.58;102055.06;5264716;28;20028;-74
2023/08/10 07:42:06;;;;;;;2.58;1.10;;;;;;;19.87;90.52;102038.63;5264502;28;20072;-73
2023/08/10 07:44:38;;;;;;;4.13;1.45;;;;;;;20.07;83.72;102049.78;5262840;28;20024;-73
2023/08/10 07:47:09;;;;;;;2.70;1.57;;;;;;;20.02;90.41;102052.94;5264370;28;20386;-74
2023/08/10 07:49:43;;;;;;;4.27;1.90;;;;;;;20.27;92.19;102053.84;5262490;28;20029;-74
2023/08/10 07:52:14;;;;;;;3.92;1.50;;;;;;;20.31;86.67;102049.84;5265771;28;20040;-74
2023/08/10 07:54:46;;;;;;;3.38;1.52;;;;;;;20.46;81.74;102060.69;5264425;28;20020;-73
2023/08/10 07:57:17;;;;;;;3.93;1.67;;;;;;;20.52;77.95;102049.38;5258704;28;20572;-74
2023/08/10 07:59:48;;;;;;;4.35;1.30;;;;;;;20.62;69.16;102055.38;5259934;28;20044;-74
2023/08/10 08:02:20;;;;;;;2.67;1.13;;;;;;;20.71;68.15;102055.38;5258408;28;20064;-74
2023/08/10 08:04:51;;;;;;;2.60;1.10;;;;;;;20.87;59.89;102056.22;5262086;28;20032;-74
2023/08/10 08:07:25;;;;;;;2.47;1.13;;;;;;;20.95;65.90;102059.84;5259749;28;20062;-74
2023/08/10 08:09:57;;;;;;;2.60;1.00;;;;;;;20.97;62.11;102058.69;5261633;28;20020;-74
2023/08/10 08:12:29;;;;;;;3.50;0.90;;;;;;;21.17;59.91;102053.78;5261837;28;20032;-74
2023/08/10 08:15:01;;;;;;;2.40;0.90;;;;;;;21.23;58.02;102050.47;5257389;28;20498;-74
2023/08/10 08:18:11;;;;;;;2.67;1.00;;;;;;;21.69;61.81;102053.31;5261903;28;20502;-74
2023/08/10 08:20:43;;;;;;;3.95;1.10;;;;;;;21.46;61.38;102053.25;5261052;28;20051;-73
2023/08/10 08:23:14;;;;;;;1.80;1.00;;;;;;;21.67;62.39;102051.81;5263076;28;20478;-74
2023/08/10 08:25:45;;;;;;;3.53;1.43;;;;;;;21.77;60.80;102050.59;5265523;28;20111;-74
2023/08/10 08:28:16;;;;;;;4.43;1.40;;;;;;;21.78;61.93;102051.44;5259043;28;20032;-74
2023/08/10 08:30:49;;;;;;;2.53;1.30;;;;;;;22.00;64.64;102047.16;5263886;28;20086;-74
2023/08/10 08:33:20;;;;;;;2.65;1.10;;;;;;;22.06;61.63;102057.97;5245802;28;20043;-74
2023/08/10 08:35:51;;;;;;;3.17;0.83;;;;;;;22.13;64.38;102060.75;5262275;28;20499;-74
2023/08/10 08:38:24;;;;;;;3.77;1.70;;;;;;;22.25;60.20;102053.19;5258873;28;20025;-74
2023/08/10 08:40:55;;;;;;;2.05;0.80;;;;;;;22.38;56.67;102064.09;5261953;28;20025;-74
2023/08/10 08:43:27;;;;;;;3.43;1.07;;;;;;;22.63;55.26;102055.91;5257614;28;20093;-74
2023/08/10 08:45:59;;;;;;;2.30;1.13;;;;;;;22.73;58.12;102062.66;5258356;28;20028;-74
2023/08/10 08:48:31;;;;;;;4.53;1.40;;;;;;;22.83;60.18;102049.03;5260926;28;20028;-74
2023/08/10 08:51:05;;;;;;;2.17;1.00;;;;;;;23.21;60.09;102060.53;5261732;28;20024;-74
2023/08/10 08:53:37;;;;;;;3.05;1.33;;;;;;;23.31;56.25;102046.91;5255456;28;20025;-74
2023/08/10 08:56:09;;;;;;;3.30;1.13;;;;;;;23.50;58.04;102064.22;5235679;28;20095;-74
2023/08/10 08:58:40;;;;;;;4.90;1.37;;;;;;;23.48;59.00;102056.38;5256878;28;20032;-74
2023/08/10 09:01:13;;;;;;;2.03;0.93;;;;;;;23.59;58.69;102064.94;5222835;28;20037;-74
2023/08/10 09:03:45;;;;;;;2.42;0.90;;;;;;;23.51;57.85;102061.34;5256008;28;20040;-75
2023/08/10 09:06:16;;;;;;;2.58;1.00;;;;;;;23.65;61.67;102046.31;5260648;28;20021;-74
2023/08/10 09:08:47;;;;;;;3.37;1.10;;;;;;;23.63;57.16;102042.97;5261748;28;20048;-74
2023/08/10 09:11:19;;;;;;;2.93;1.10;;;;;;;23.72;57.48;102043.75;5258521;28;20055;-74
2023/08/10 09:14:16;;;;;;;4.87;1.23;;;;;;;24.17;61.47;102029.22;5261207;28;20115;-74
2023/08/10 09:16:48;;;;;;;2.67;1.20;;;;;;;23.72;62.20;102031.19;5254905;28;20120;-74
2023/08/10 09:19:20;;;;;;;3.67;1.13;;;;;;;23.71;53.13;102032.19;5262258;28;20024;-75
2023/08/10 09:21:51;;;;;;;2.90;1.08;;;;;;;23.86;57.06;102042.88;5259992;28;20038;-75
2023/08/10 09:24:23;;;;;;;4.67;1.20;;;;;;;23.97;54.54;102039.69;5254353;28;20028;-75
2023/08/10 09:26:54;;;;;;;4.13;1.20;;;;;;;24.11;54.98;102038.00;5263842;28;20082;-75
2023/08/10 09:29:29;;;;;;;890.53;213.83;;;;;;;24.37;57.29;102037.41;5259789;28;20064;-75
2023/08/10 09:32:00;;;;;;;39.53;12.45;;;;;;;24.28;53.68;102034.06;5258422;28;20029;-75
2023/08/10 09:34:33;;;;;;;5.93;2.65;;;;;;;24.46;55.26;102038.13;5255954;28;20494;-74
2023/08/10 09:37:04;;;;;;;2.53;1.33;;;;;;;24.46;56.81;102036.28;5261717;28;20493;-75
2023/08/10 09:39:36;;;;;;;;;;;;;;;25.46;57.17;102032.44;5264262;28;20050;-75
2023/08/10 09:42:08;;;;;;;3.40;1.20;;;;;;;24.65;57.49;102031.28;5261810;28;20294;-75
2023/08/10 09:44:52;;;;;;;3.97;1.20;;;;;;;24.83;54.38;102037.00;5267309;28;20033;-75
2023/08/10 09:47:24;;;;;;;3.17;1.30;;;;;;;24.71;52.66;102036.69;5262303;28;20032;-75
2023/08/10 09:50:05;;;;;;;4.10;1.10;;;;;;;24.58;49.69;102041.94;5260351;28;20024;-75
2023/08/10 09:52:36;;;;;;;3.78;1.38;;;;;;;24.68;55.60;102041.63;5260142;28;20025;-75
2023/08/10 09:55:10;;;;;;;2.77;1.47;;;;;;;24.79;53.50;102038.41;5266630;28;20089;-75
2023/08/10 09:57:44;;;;;;;2.95;1.17;;;;;;;24.79;55.04;102038.41;5247265;28;20029;-75
2023/08/10 10:00:19;;;;;;;2.53;1.00;;;;;;;24.87;54.74;102032.91;5263213;28;20073;-75
2023/08/10 10:02:51;;;;;;;3.45;1.10;;;;;;;24.95;54.12;102040.78;5262113;28;20029;-75
2023/08/10 10:05:22;;;;;;;3.27;1.40;;;;;;;24.85;53.54;102039.47;5264503;28;20036;-75
2023/08/10 10:07:54;;;;;;;2.93;1.40;;;;;;;24.92;50.54;102037.66;5268836;28;20024;-75
2023/08/10 10:10:25;;;;;;;3.40;1.20;;;;;;;24.95;52.41;102038.09;5261244;28;20044;-75
2023/08/10 10:12:57;;;;;;;14.20;2.83;;;;;;;24.95;56.63;102040.78;5264026;28;20363;-75
2023/08/10 10:15:30;;;;;;;2.25;1.38;;;;;;;25.10;56.84;102043.38;5259912;28;20474;-76
2023/08/10 10:18:03;;;;;;;2.30;1.20;;;;;;;24.85;52.86;102044.81;5266523;28;20037;-76
2023/08/10 10:20:35;;;;;;;;;;;;;;;25.94;55.83;102053.88;5263075;28;20112;-75
2023/08/10 10:23:14;;;;;;;2.43;1.40;;;;;;;25.29;54.24;102049.88;5260655;28;19926;-77
2023/08/10 10:25:56;;;;;;;6.88;1.50;;;;;;;25.37;56.57;102049.72;5260182;28;20179;-76
2023/08/10 10:28:30;;;;;;;4.68;1.38;;;;;;;25.12;53.32;102057.44;5260411;28;20033;-77
2023/08/10 10:31:06;;;;;;;2.25;1.00;;;;;;;25.26;52.82;102052.94;5263220;28;20194;-75
2023/08/10 10:33:40;;;;;;;3.25;1.20;;;;;;;25.30;55.15;102048.03;5270163;28;20366;-77
2023/08/10 10:36:14;;;;;;;4.05;1.38;;;;;;;25.47;54.46;102042.13;5270660;28;20059;-75
2023/08/10 10:38:47;;;;;;;3.00;1.40;;;;;;;25.61;52.16;102036.81;5260387;28;20981;-78
2023/08/10 10:41:30;;;;;;;2.55;1.40;;;;;;;25.76;52.04;102042.88;5259482;28;20115;-76
2023/08/10 10:44:06;;;;;;;3.70;1.35;;;;;;;25.75;53.42;102035.81;5258503;28;20039;-76
2023/08/10 10:46:38;;;;;;;2.63;1.88;;;;;;;25.64;48.88;102036.41;5261979;28;20043;-77
2023/08/10 10:49:19;;;;;;;2.50;1.40;;;;;;;26.12;50.77;102041.75;5262283;28;20415;-76
2023/08/10 10:51:58;;;;;;;3.53;1.40;;;;;;;26.11;50.75;102038.22;5261664;28;20438;-77
2023/08/10 10:54:35;;;;;;;2.80;1.30;;;;;;;26.44;51.55;102037.41;5256963;28;20040;-77
2023/08/10 10:57:06;;;;;;;1.92;1.10;;;;;;;26.12;50.37;102029.13;5259475;28;20504;-77
2023/08/10 10:59:37;;;;;;;3.40;1.40;;;;;;;26.27;48.37;102018.19;5263146;28;20033;-77
2023/08/10 11:02:09;;;;;;;3.77;1.27;;;;;;;26.11;47.92;102027.50;5264091;28;20097;-76
2023/08/10 11:04:41;;;;;;;2.73;1.20;;;;;;;26.14;49.55;102031.63;5258705;28;20032;-77
2023/08/10 11:07:12;;;;;;;2.05;1.23;;;;;;;26.18;47.04;102032.88;5258419;28;20037;-75
2023/08/10 11:09:43;;;;;;;3.03;1.33;;;;;;;26.10;46.99;102019.63;5259910;28;20086;-77
2023/08/10 11:12:17;;;;;;;3.90;1.47;;;;;;;26.24;46.48;102023.97;5261641;28;20444;-76
2023/08/10 11:14:48;;;;;;;3.05;1.20;;;;;;;25.86;46.49;102029.91;5255806;28;20025;-75
2023/08/10 11:17:21;;;;;;;2.10;1.20;;;;;;;26.19;49.96;102023.78;5257559;28;20024;-75
2023/08/10 11:19:53;;;;;;;5.07;1.40;;;;;;;26.07;49.73;102026.25;5261568;28;20063;-78
2023/08/10 11:22:24;;;;;;;2.13;1.40;;;;;;;26.10;50.00;102009.72;5266534;28;20508;-76
2023/08/10 11:24:57;;;;;;;5.50;1.60;;;;;;;26.46;48.63;102026.50;5254452;28;20063;-75
2023/08/10 11:27:28;;;;;;;;;;;;;;;27.48;45.20;102019.69;5263512;28;20117;-76
2023/08/10 11:30:00;;;;;;;3.33;1.50;;;;;;;26.60;48.05;102026.28;5253978;28;20007;-75
2023/08/10 11:32:31;;;;;;;3.83;1.77;;;;;;;26.60;45.57;102014.72;5259453;28;20028;-77
2023/08/10 11:35:03;;;;;;;3.33;1.67;;;;;;;26.71;45.24;102003.34;5260238;28;20295;-76
2023/08/10 11:37:37;;;;;;;3.10;1.70;;;;;;;26.64;45.55;101999.84;5260615;28;20033;-75
2023/08/10 11:40:17;;;;;;;3.85;1.60;;;;;;;26.81;48.42;102010.97;5259612;28;20115;-75
2023/08/10 11:43:02;;;;;;;3.95;1.90;;;;;;;26.92;46.80;102010.31;5261717;28;20119;-74
2023/08/10 11:45:37;;;;;;;3.42;1.95;;;;;;;26.77;43.54;102005.16;5262857;28;20029;-76